Time;durP1;ratioP1;P1;durP2;ratioP2;P2;SDS_P1;SDS_P2;PMS_P1;PMS_P2;Temp;Humidity;BMP_temperature;BMP_pressure;BME280_temperature;BME280_humidity;BME280_pressure;Samples;Min_cycle;Max_cycle;Signal;HPM_P1;HPM_P2
2022/04/15 00:02:13;;;;;;;15.17;11.63;;;10.70;99.90;;;;;;2618734;47;20492;-79
2022/04/15 00:04:39;;;;;;;14.97;13.10;;;10.70;99.90;;;;;;2619087;39;20636;-80
2022/04/15 00:07:06;;;;;;;16.27;14.10;;;10.60;99.90;;;;;;2618669;46;20978;-78
2022/04/15 00:09:33;;;;;;;17.27;13.70;;;10.40;99.90;;;;;;2618932;39;20529;-79
2022/04/15 00:12:06;;;;;;;15.63;13.93;;;10.40;99.90;;;;;;2618878;47;20475;-78
2022/04/15 00:14:34;;;;;;;14.30;12.90;;;10.50;99.90;;;;;;2619163;54;20375;-80
2022/04/15 00:17:01;;;;;;;18.20;13.30;;;10.40;99.90;;;;;;2619473;54;20956;-80
2022/04/15 00:19:27;;;;;;;15.60;12.90;;;10.20;99.90;;;;;;2619856;39;20812;-79
2022/04/15 00:21:55;;;;;;;21.07;16.83;;;10.10;99.90;;;;;;2618168;46;20438;-79
2022/04/15 00:24:22;;;;;;;20.07;14.10;;;9.90;99.90;;;;;;2618514;46;20223;-79
2022/04/15 00:26:48;;;;;;;20.27;14.73;;;9.90;99.90;;;;;;2618538;47;20487;-79
2022/04/15 00:29:15;;;;;;;17.30;13.70;;;9.80;99.90;;;;;;2618575;47;20387;-79
2022/04/15 00:31:42;;;;;;;16.73;14.93;;;9.70;99.90;;;;;;2618469;54;20383;-79
2022/04/15 00:34:08;;;;;;;19.37;14.77;;;9.90;99.90;;;;;;2618487;47;20381;-79
2022/04/15 00:36:34;;;;;;;14.97;13.37;;;9.90;99.90;;;;;;2619113;39;20781;-79
2022/04/15 00:38:59;;;;;;;20.20;13.80;;;9.90;99.90;;;;;;2618621;47;20139;-79
2022/04/15 00:41:25;;;;;;;17.07;15.00;;;9.80;99.90;;;;;;2618878;39;20568;-79
2022/04/15 00:43:55;;;;;;;17.67;14.33;;;9.80;99.90;;;;;;2618389;47;20145;-79
2022/04/15 00:46:23;;;;;;;16.03;13.93;;;9.80;99.90;;;;;;2618425;47;20674;-79
2022/04/15 00:48:50;;;;;;;16.00;13.57;;;9.80;99.90;;;;;;2618619;54;20952;-79
2022/04/15 00:51:16;;;;;;;22.60;14.00;;;9.80;99.90;;;;;;2618464;47;20538;-80
2022/04/15 00:53:44;;;;;;;19.60;15.17;;;9.70;99.90;;;;;;2619062;54;20391;-79
2022/04/15 00:56:12;;;;;;;16.33;14.17;;;9.80;99.90;;;;;;2618245;46;20459;-79
2022/04/15 00:58:40;;;;;;;15.80;14.20;;;9.70;99.90;;;;;;2618613;47;20392;-79
2022/04/15 01:01:06;;;;;;;17.93;13.97;;;9.70;99.90;;;;;;2618256;54;20423;-80
2022/04/15 01:03:34;;;;;;;22.33;14.70;;;9.70;99.90;;;;;;2618638;31;20881;-80
2022/04/15 01:06:04;;;;;;;18.37;14.57;;;9.60;99.90;;;;;;2618003;47;20400;-81
2022/04/15 01:08:32;;;;;;;15.97;13.80;;;9.40;99.90;;;;;;2618200;54;20513;-80
2022/04/15 01:11:00;;;;;;;17.10;14.70;;;9.40;99.90;;;;;;2618206;47;20375;-80
2022/04/15 01:13:27;;;;;;;21.07;15.27;;;9.30;99.90;;;;;;2618143;46;20396;-80
2022/04/15 01:15:55;;;;;;;21.63;16.37;;;9.30;99.90;;;;;;2617695;47;20483;-80
2022/04/15 01:18:22;;;;;;;24.33;14.40;;;9.40;99.90;;;;;;2618600;54;20794;-80
2022/04/15 01:20:50;;;;;;;19.30;13.53;;;9.30;99.90;;;;;;2617963;54;20913;-80
2022/04/15 01:23:16;;;;;;;20.17;13.70;;;9.30;99.90;;;;;;2618047;47;20915;-80
2022/04/15 01:25:42;;;;;;;19.67;14.73;;;9.20;99.90;;;;;;2618296;54;20438;-79
2022/04/15 01:28:09;;;;;;;15.13;13.10;;;9.20;99.90;;;;;;2618469;46;20398;-80
2022/04/15 01:30:35;;;;;;;21.20;13.97;;;9.20;99.90;;;;;;2618256;54;20143;-80
2022/04/15 01:33:03;;;;;;;17.43;14.83;;;9.30;99.90;;;;;;2618099;54;20954;-79
2022/04/15 01:35:29;;;;;;;20.73;14.43;;;9.40;99.90;;;;;;2618012;51;20663;-79
2022/04/15 01:37:57;;;;;;;17.70;13.63;;;9.30;99.90;;;;;;2617973;47;20415;-79
2022/04/15 01:40:23;;;;;;;19.53;15.50;;;9.20;99.90;;;;;;2617732;47;20449;-79
2022/04/15 01:42:50;;;;;;;16.80;14.90;;;9.00;99.90;;;;;;2618088;54;20371;-79
2022/04/15 01:45:16;;;;;;;20.13;13.60;;;9.10;99.90;;;;;;2618011;47;20390;-79
2022/04/15 01:47:42;;;;;;;19.00;13.70;;;9.20;99.90;;;;;;2617730;54;20400;-79
2022/04/15 01:50:08;;;;;;;19.33;14.40;;;9.20;99.90;;;;;;2617818;54;20143;-79
2022/04/15 01:52:34;;;;;;;17.63;13.70;;;9.20;99.90;;;;;;2617887;47;20377;-80
2022/04/15 01:55:01;;;;;;;16.50;13.63;;;9.20;99.90;;;;;;2618625;46;20406;-79
2022/04/15 01:57:26;;;;;;;18.97;14.93;;;9.20;99.90;;;;;;2618470;54;20407;-79
2022/04/15 01:59:53;;;;;;;15.73;13.10;;;9.10;99.90;;;;;;2618332;54;20445;-80
2022/04/15 02:02:19;;;;;;;19.43;14.57;;;9.20;99.90;;;;;;2618088;47;20420;-79
2022/04/15 02:04:45;;;;;;;17.83;14.33;;;9.10;99.90;;;;;;2618039;46;20419;-79
2022/04/15 02:07:11;;;;;;;18.83;14.50;;;9.00;99.90;;;;;;2618433;39;20773;-80
2022/04/15 02:09:37;;;;;;;14.10;12.47;;;8.90;99.90;;;;;;2619892;39;20561;-80
2022/04/15 02:12:03;;;;;;;17.50;14.70;;;8.90;99.90;;;;;;2618576;39;20560;-80
2022/04/15 02:14:29;;;;;;;17.40;13.33;;;8.90;99.90;;;;;;2617953;46;20162;-80
2022/04/15 02:16:55;;;;;;;15.80;14.20;;;8.90;99.90;;;;;;2618020;46;20393;-80
2022/04/15 02:19:21;;;;;;;15.77;12.93;;;8.90;99.90;;;;;;2618127;54;20482;-79
2022/04/15 02:21:48;;;;;;;21.80;14.30;;;8.90;99.90;;;;;;2618100;47;20165;-80
2022/04/15 02:24:14;;;;;;;17.23;12.97;;;8.90;99.90;;;;;;2618825;39;20778;-80
2022/04/15 02:26:40;;;;;;;16.70;13.57;;;8.90;99.90;;;;;;2617326;47;20890;-81
2022/04/15 02:29:06;;;;;;;21.03;13.80;;;8.80;99.90;;;;;;2616499;54;20406;-82
2022/04/15 02:31:32;;;;;;;20.57;14.83;;;8.70;99.90;;;;;;2616443;47;20446;-79
2022/04/15 02:33:58;;;;;;;17.70;14.80;;;8.60;99.90;;;;;;2616831;54;20189;-81
2022/04/15 02:36:25;;;;;;;19.73;15.37;;;8.50;99.90;;;;;;2616703;47;20165;-81
2022/04/15 02:38:51;;;;;;;18.70;15.50;;;8.30;99.90;;;;;;2616932;47;21645;-81
2022/04/15 02:41:17;;;;;;;20.20;16.60;;;8.20;99.90;;;;;;2616623;54;20418;-80
2022/04/15 02:43:43;;;;;;;17.23;15.43;;;8.50;99.90;;;;;;2615822;54;20166;-81
2022/04/15 02:46:10;;;;;;;20.17;15.80;;;8.60;99.90;;;;;;2617055;46;20970;-80
2022/04/15 02:48:36;;;;;;;19.67;16.17;;;8.70;99.90;;;;;;2617103;47;20439;-82
2022/04/15 02:51:03;;;;;;;22.10;15.87;;;8.70;99.90;;;;;;2616148;47;20501;-80
2022/04/15 02:53:30;;;;;;;17.00;15.20;;;8.60;99.90;;;;;;2615881;47;20973;-81
2022/04/15 02:55:57;;;;;;;18.00;16.10;;;8.40;99.90;;;;;;2615867;39;20812;-81
2022/04/15 02:58:24;;;;;;;17.10;15.30;;;8.40;99.90;;;;;;2616583;47;21022;-81
2022/04/15 03:00:50;;;;;;;21.00;15.70;;;8.40;99.90;;;;;;2615873;47;20466;-82
2022/04/15 03:03:16;;;;;;;21.80;17.07;;;8.40;99.90;;;;;;2616587;54;20406;-81
2022/04/15 03:05:42;;;;;;;19.37;16.67;;;8.20;99.90;;;;;;2616822;47;20430;-81
2022/04/15 03:08:08;;;;;;;19.97;16.27;;;8.20;99.90;;;;;;2617024;47;20410;-81
2022/04/15 03:10:34;;;;;;;21.60;18.60;;;8.10;99.90;;;;;;2614576;54;20418;-80
2022/04/15 03:13:01;;;;;;;18.30;16.17;;;8.10;99.90;;;;;;2617525;54;20428;-81
2022/04/15 03:15:27;;;;;;;21.50;17.43;;;8.10;99.90;;;;;;2617021;54;20463;-81
2022/04/15 03:17:53;;;;;;;27.20;18.27;;;8.20;99.90;;;;;;2617141;54;20411;-80
2022/04/15 03:20:19;;;;;;;21.50;17.60;;;8.00;99.90;;;;;;2616933;39;20790;-80
2022/04/15 03:22:45;;;;;;;25.53;18.77;;;7.90;99.90;;;;;;2616068;54;20509;-81
2022/04/15 03:25:19;;;;;;;25.40;17.33;;;8.00;99.90;;;;;;2616018;47;20953;-81
2022/04/15 03:27:46;;;;;;;24.07;16.27;;;8.10;99.90;;;;;;2617010;54;20446;-81
2022/04/15 03:30:14;;;;;;;25.27;16.33;;;8.30;99.90;;;;;;2616853;47;21053;-81
2022/04/15 03:32:47;;;;;;;22.27;16.87;;;8.30;99.90;;;;;;2617334;47;20552;-81
2022/04/15 03:35:14;;;;;;;27.70;17.33;;;8.30;99.90;;;;;;2617423;47;20945;-82
2022/04/15 03:37:39;;;;;;;19.33;15.80;;;8.20;99.90;;;;;;2616106;47;20416;-82
2022/04/15 03:40:06;;;;;;;19.33;15.87;;;8.20;99.90;;;;;;2616369;54;20396;-81
2022/04/15 03:42:43;;;;;;;21.00;16.57;;;8.10;99.90;;;;;;2616570;47;20184;-81
2022/04/15 03:45:09;;;;;;;18.93;16.00;;;8.00;99.90;;;;;;2617830;54;20444;-80
2022/04/15 03:47:36;;;;;;;20.10;15.63;;;8.00;99.90;;;;;;2616525;39;20781;-81
2022/04/15 03:50:03;;;;;;;20.60;14.17;;;8.00;99.90;;;;;;2617352;54;20399;-81
2022/04/15 03:52:28;;;;;;;21.40;16.77;;;8.00;99.90;;;;;;2616994;54;20926;-81
2022/04/15 03:54:55;;;;;;;19.20;16.20;;;7.90;99.90;;;;;;2617469;47;20521;-81
2022/04/15 03:57:20;;;;;;;19.43;14.47;;;7.90;99.90;;;;;;2617625;47;21352;-81
2022/04/15 03:59:47;;;;;;;17.80;15.93;;;7.80;99.90;;;;;;2618249;54;20454;-81
2022/04/15 04:02:14;;;;;;;16.90;14.80;;;7.90;99.90;;;;;;2618044;47;20158;-81
2022/04/15 04:04:40;;;;;;;18.23;14.80;;;7.60;99.90;;;;;;2617370;54;20505;-81
2022/04/15 04:07:06;;;;;;;18.37;14.60;;;7.60;99.90;;;;;;2617026;39;20860;-82
2022/04/15 04:09:31;;;;;;;18.57;15.20;;;7.60;99.90;;;;;;2616129;47;20174;-81
2022/04/15 04:11:57;;;;;;;22.20;16.53;;;7.60;99.90;;;;;;2616782;47;20165;-80
2022/04/15 04:14:23;;;;;;;19.20;15.97;;;7.70;99.90;;;;;;2616743;54;20195;-81
2022/04/15 04:16:50;;;;;;;17.70;15.00;;;7.60;99.90;;;;;;2616581;54;20817;-81
2022/04/15 04:19:16;;;;;;;21.90;17.10;;;7.60;99.90;;;;;;2615760;54;20273;-80
2022/04/15 04:21:42;;;;;;;22.13;16.70;;;7.50;99.90;;;;;;2617245;39;20808;-82
2022/04/15 04:24:08;;;;;;;19.53;16.63;;;7.60;99.90;;;;;;2616939;54;20493;-80
2022/04/15 04:26:34;;;;;;;20.43;15.50;;;7.60;99.90;;;;;;2616144;47;20165;-80
2022/04/15 04:29:00;;;;;;;18.80;16.57;;;7.60;99.90;;;;;;2616400;47;20427;-81
2022/04/15 04:31:26;;;;;;;22.30;17.23;;;7.70;99.90;;;;;;2616223;47;20170;-81
2022/04/15 04:33:51;;;;;;;20.10;16.80;;;7.70;99.90;;;;;;2616375;47;20204;-81
2022/04/15 04:36:18;;;;;;;18.73;16.20;;;7.70;99.90;;;;;;2617494;54;21043;-81
2022/04/15 04:38:44;;;;;;;20.00;17.00;;;7.90;99.90;;;;;;2616893;47;20431;-81
2022/04/15 04:41:09;;;;;;;18.87;16.20;;;8.00;99.90;;;;;;2616425;47;20328;-81
2022/04/15 04:43:35;;;;;;;24.47;16.60;;;8.10;99.90;;;;;;2616885;47;20159;-80
2022/04/15 04:46:01;;;;;;;26.37;17.90;;;8.30;99.90;;;;;;2616405;54;20205;-81
2022/04/15 04:48:27;;;;;;;27.77;17.23;;;8.30;99.90;;;;;;2615863;47;20168;-80
2022/04/15 04:50:53;;;;;;;19.83;15.00;;;8.30;99.90;;;;;;2616219;39;20574;-81
2022/04/15 04:53:20;;;;;;;25.03;18.07;;;8.40;99.90;;;;;;2616363;54;20541;-81
2022/04/15 04:56:09;;;;;;;26.03;17.40;;;8.40;99.90;;;;;;2616254;47;20170;-81
2022/04/15 04:58:35;;;;;;;24.17;17.67;;;8.50;99.90;;;;;;2614444;46;20440;-81
2022/04/15 05:01:00;;;;;;;29.43;18.67;;;8.40;99.90;;;;;;2613462;47;20430;-81
2022/04/15 05:03:26;;;;;;;28.50;20.10;;;8.50;99.90;;;;;;2614678;39;20586;-80
2022/04/15 05:05:52;;;;;;;22.27;14.27;;;8.40;99.90;;;;;;2615919;54;20154;-81
2022/04/15 05:08:18;;;;;;;22.97;18.03;;;8.30;99.90;;;;;;2615483;54;20616;-81
2022/04/15 05:10:44;;;;;;;32.03;18.93;;;8.30;99.90;;;;;;2615281;47;20811;-80
2022/04/15 05:13:09;;;;;;;28.33;18.80;;;8.20;99.90;;;;;;2615087;47;20168;-82
2022/04/15 05:15:35;;;;;;;35.83;19.43;;;8.30;99.90;;;;;;2615062;47;20402;-80
2022/04/15 05:18:03;;;;;;;24.40;18.63;;;8.30;99.90;;;;;;2615270;54;20148;-80
2022/04/15 05:20:29;;;;;;;27.73;19.07;;;8.30;99.90;;;;;;2614207;47;21213;-81
2022/04/15 05:22:55;;;;;;;27.23;18.40;;;8.40;99.90;;;;;;2610626;39;20995;-81
2022/04/15 05:25:21;;;;;;;24.47;16.63;;;8.50;99.90;;;;;;2612434;47;20420;-81
2022/04/15 05:28:13;;;;;;;32.70;20.60;;;8.40;99.90;;;;;;2615317;47;20450;-80
2022/04/15 05:30:38;;;;;;;33.13;21.33;;;8.40;99.90;;;;;;2616020;54;20415;-80
2022/04/15 05:33:04;;;;;;;26.83;17.60;;;8.50;99.90;;;;;;2614879;54;20397;-81
2022/04/15 05:35:30;;;;;;;37.43;24.27;;;8.40;99.90;;;;;;2615248;47;20412;-80
2022/04/15 05:37:56;;;;;;;38.03;23.97;;;8.40;99.90;;;;;;2615625;54;20149;-81
2022/04/15 05:40:23;;;;;;;36.70;24.57;;;8.40;99.90;;;;;;2615793;39;20568;-80
2022/04/15 05:42:49;;;;;;;38.63;25.50;;;8.30;99.90;;;;;;2613349;47;20808;-81
2022/04/15 05:45:15;;;;;;;39.60;25.13;;;8.40;99.90;;;;;;2611678;47;20406;-82
2022/04/15 05:47:40;;;;;;;44.30;22.53;;;8.50;99.90;;;;;;2614505;54;20146;-81
2022/04/15 05:50:07;;;;;;;37.23;24.00;;;8.50;99.90;;;;;;2614647;54;21127;-81
2022/04/15 05:52:34;;;;;;;37.83;24.20;;;8.50;99.90;;;;;;2612793;54;20176;-82
2022/04/15 05:55:00;;;;;;;39.53;22.87;;;8.60;99.90;;;;;;2613137;47;20390;-81
2022/04/15 05:57:26;;;;;;;35.40;22.57;;;8.70;99.90;;;;;;2615753;39;20555;-80
2022/04/15 05:59:51;;;;;;;30.20;19.30;;;8.70;99.90;;;;;;2615214;47;21042;-80
2022/04/15 06:02:17;;;;;;;28.63;19.27;;;8.70;99.90;;;;;;2614876;47;20401;-81
2022/04/15 06:04:43;;;;;;;29.70;17.73;;;8.60;99.90;;;;;;2614889;51;20193;-81
2022/04/15 06:07:09;;;;;;;25.20;18.90;;;8.80;99.90;;;;;;2615555;39;20585;-81
2022/04/15 06:09:35;;;;;;;28.13;18.10;;;8.80;99.90;;;;;;2615495;39;21014;-81
2022/04/15 06:12:02;;;;;;;24.37;17.70;;;8.90;99.90;;;;;;2616339;47;20174;-80
2022/04/15 06:14:33;;;;;;;24.60;15.73;;;8.90;99.90;;;;;;2617200;47;20170;-80
2022/04/15 06:16:59;;;;;;;23.50;15.87;;;9.00;99.90;;;;;;2615988;47;20407;-80
2022/04/15 06:19:25;;;;;;;26.73;17.90;;;8.90;99.90;;;;;;2615217;54;20474;-80
2022/04/15 06:21:51;;;;;;;24.00;17.20;;;8.90;99.90;;;;;;2615481;54;20564;-80
2022/04/15 06:24:18;;;;;;;22.23;15.80;;;9.00;99.90;;;;;;2615921;47;20713;-80
2022/04/15 06:26:46;;;;;;;24.53;17.20;;;9.10;99.90;;;;;;2616189;54;20395;-80
2022/04/15 06:29:12;;;;;;;20.37;16.07;;;9.10;99.90;;;;;;2616358;31;20846;-82
2022/04/15 06:31:37;;;;;;;22.60;15.77;;;9.10;99.90;;;;;;2615600;54;20388;-79
2022/04/15 06:34:04;;;;;;;21.27;16.30;;;9.10;99.90;;;;;;2613010;47;20159;-80
2022/04/15 06:36:30;;;;;;;29.47;17.87;;;9.20;99.90;;;;;;2614101;47;20163;-81
2022/04/15 06:38:56;;;;;;;18.77;15.10;;;9.20;99.90;;;;;;2612971;31;20859;-80
2022/04/15 06:41:22;;;;;;;19.73;14.70;;;9.20;99.90;;;;;;2612057;47;20417;-81
2022/04/15 06:43:47;;;;;;;17.43;13.10;;;9.30;99.90;;;;;;2612002;54;20737;-80
2022/04/15 06:46:13;;;;;;;16.73;13.03;;;9.40;99.90;;;;;;2614158;47;20166;-81
2022/04/15 06:48:39;;;;;;;19.03;13.30;;;9.40;99.90;;;;;;2610769;47;20706;-79
2022/04/15 06:51:05;;;;;;;14.00;11.73;;;9.50;99.90;;;;;;2612359;39;20534;-81
2022/04/15 06:53:31;;;;;;;12.60;11.33;;;9.50;99.90;;;;;;2613321;47;20155;-81
2022/04/15 06:55:58;;;;;;;15.53;10.80;;;9.70;99.90;;;;;;2612802;47;20167;-80
2022/04/15 06:58:23;;;;;;;12.60;10.30;;;9.80;99.90;;;;;;2612255;47;20427;-81
2022/04/15 07:00:52;;;;;;;11.40;9.67;;;9.70;99.90;;;;;;2612732;47;20488;-80
2022/04/15 07:03:18;;;;;;;11.60;9.67;;;9.70;99.90;;;;;;2613621;54;20804;-81
2022/04/15 07:05:44;;;;;;;11.23;9.70;;;9.80;99.90;;;;;;2613163;54;20415;-80
2022/04/15 07:08:11;;;;;;;11.63;9.70;;;9.70;99.90;;;;;;2612741;47;20439;-82
2022/04/15 07:10:38;;;;;;;12.03;10.47;;;9.70;99.90;;;;;;2612264;54;20808;-81
2022/04/15 07:13:04;;;;;;;12.93;10.03;;;9.60;99.90;;;;;;2612683;47;20994;-81
2022/04/15 07:15:30;;;;;;;12.17;10.33;;;9.70;99.90;;;;;;2614480;47;20483;-81
2022/04/15 07:17:56;;;;;;;8.87;8.07;;;9.80;99.90;;;;;;2614387;54;20477;-81
2022/04/15 07:20:23;;;;;;;10.67;6.73;;;10.00;99.90;;;;;;2611631;39;20966;-82
2022/04/15 07:22:56;;;;;;;8.10;7.30;;;9.90;99.90;;;;;;2612222;39;20720;-81
2022/04/15 07:25:23;;;;;;;6.57;5.70;;;10.20;99.90;;;;;;2613029;54;20389;-82
2022/04/15 07:27:50;;;;;;;4.97;4.57;;;10.30;99.90;;;;;;2616492;39;20729;-81
2022/04/15 07:30:17;;;;;;;8.60;5.10;;;10.50;99.90;;;;;;2614768;47;20872;-80
2022/04/15 07:32:44;;;;;;;5.20;4.70;;;10.70;99.90;;;;;;2612771;47;20410;-80
2022/04/15 07:35:10;;;;;;;6.00;5.27;;;10.70;99.90;;;;;;2613587;54;20927;-81
2022/04/15 07:37:36;;;;;;;6.00;5.20;;;10.80;99.90;;;;;;2615230;46;20483;-81
2022/04/15 07:40:03;;;;;;;6.20;5.60;;;10.90;99.90;;;;;;2616152;54;20518;-81
2022/04/15 07:42:30;;;;;;;5.87;5.37;;;10.80;99.90;;;;;;2615611;54;20375;-81
2022/04/15 07:44:56;;;;;;;6.30;5.70;;;10.80;99.90;;;;;;2614515;54;21028;-81
2022/04/15 07:47:23;;;;;;;5.07;4.67;;;10.90;99.90;;;;;;2615142;46;20458;-82
2022/04/15 07:49:51;;;;;;;4.80;4.50;;;10.90;99.90;;;;;;2616924;47;20423;-81
2022/04/15 07:52:17;;;;;;;5.20;4.70;;;11.10;99.90;;;;;;2617156;54;20989;-82
2022/04/15 07:54:43;;;;;;;7.80;4.90;;;11.10;99.90;;;;;;2616562;54;20498;-82
2022/04/15 07:57:09;;;;;;;6.43;5.83;;;11.20;99.90;;;;;;2617530;39;20551;-80
2022/04/15 07:59:34;;;;;;;5.93;5.47;;;11.40;99.90;;;;;;2616492;54;20182;-81
2022/04/15 08:02:02;;;;;;;6.30;5.70;;;11.30;99.90;;;;;;2617215;47;20254;-81
2022/04/15 08:04:30;;;;;;;6.43;5.83;;;11.30;99.90;;;;;;2616703;47;20411;-81
2022/04/15 08:06:56;;;;;;;5.90;5.40;;;11.20;99.90;;;;;;2617549;46;20441;-80
2022/04/15 08:09:22;;;;;;;6.37;5.90;;;11.20;99.90;;;;;;2617673;54;20476;-80
2022/04/15 08:11:49;;;;;;;10.37;5.87;;;11.30;99.90;;;;;;2618014;39;20532;-81
2022/04/15 08:14:16;;;;;;;6.37;5.87;;;11.30;99.90;;;;;;2616950;51;20163;-81
2022/04/15 08:16:42;;;;;;;6.53;6.03;;;11.20;99.90;;;;;;2617144;47;20411;-82
2022/04/15 08:19:08;;;;;;;7.07;6.47;;;11.30;99.90;;;;;;2617214;47;20416;-82
2022/04/15 08:21:34;;;;;;;7.93;7.13;;;11.30;99.90;;;;;;2617645;47;20444;-81
2022/04/15 08:24:02;;;;;;;7.07;6.57;;;11.00;99.90;;;;;;2617167;39;20797;-82
2022/04/15 08:26:29;;;;;;;7.43;6.70;;;10.90;99.90;;;;;;2617218;47;20423;-80
2022/04/15 08:28:56;;;;;;;11.10;8.50;;;10.90;99.90;;;;;;2617539;54;20994;-82
2022/04/15 08:31:22;;;;;;;8.97;7.60;;;10.80;99.90;;;;;;2617477;47;20412;-81
2022/04/15 08:33:47;;;;;;;11.77;7.27;;;10.90;99.90;;;;;;2618076;39;20867;-81
2022/04/15 08:36:13;;;;;;;8.53;7.60;;;10.90;99.90;;;;;;2618087;54;20139;-81
2022/04/15 08:38:39;;;;;;;8.60;7.90;;;11.10;99.90;;;;;;2617886;54;20726;-81
2022/04/15 08:41:06;;;;;;;10.27;8.67;;;11.10;99.90;;;;;;2617366;54;20764;-81
2022/04/15 08:43:32;;;;;;;8.03;7.23;;;11.10;99.90;;;;;;2617171;47;21107;-80
2022/04/15 08:46:03;;;;;;;10.20;7.80;;;11.10;99.90;;;;;;2617174;47;20511;-81
2022/04/15 08:48:31;;;;;;;9.13;7.40;;;11.00;99.90;;;;;;2617542;54;20143;-81
2022/04/15 08:50:59;;;;;;;9.47;8.47;;;10.90;99.90;;;;;;2617293;47;20421;-80
2022/04/15 08:53:25;;;;;;;12.53;8.40;;;10.90;99.90;;;;;;2618054;54;21113;-79
2022/04/15 08:55:51;;;;;;;9.60;8.70;;;11.00;99.90;;;;;;2617180;47;20422;-80
2022/04/15 08:58:16;;;;;;;10.80;8.63;;;11.00;99.90;;;;;;2617759;54;20416;-80
2022/04/15 09:00:42;;;;;;;9.43;8.40;;;11.00;99.90;;;;;;2616970;54;20178;-82
2022/04/15 09:03:08;;;;;;;11.53;7.60;;;11.00;99.90;;;;;;2616788;54;20666;-82
2022/04/15 09:05:34;;;;;;;8.40;7.50;;;11.00;99.90;;;;;;2617882;54;20435;-80
2022/04/15 09:08:11;;;;;;;10.30;8.17;;;11.00;99.90;;;;;;2617514;39;20570;-83
2022/04/15 09:11:03;;;;;;;11.30;9.00;;;11.00;99.90;;;;;;2617464;39;20248;-81
2022/04/15 09:13:34;;;;;;;9.50;8.60;;;11.00;99.90;;;;;;2616997;54;20422;-81
2022/04/15 09:16:01;;;;;;;10.13;8.30;;;11.00;99.90;;;;;;2616591;47;20466;-81
2022/04/15 09:18:28;;;;;;;8.23;7.43;;;11.00;99.90;;;;;;2616747;54;20431;-80
2022/04/15 09:21:18;;;;;;;11.37;8.90;;;11.00;99.90;;;;;;2616236;54;20424;-82
2022/04/15 09:23:48;;;;;;;13.20;8.20;;;10.90;99.90;;;;;;2616541;54;20412;-82
2022/04/15 09:26:14;;;;;;;9.83;8.83;;;10.70;99.90;;;;;;2616500;54;20386;-81
2022/04/15 09:28:41;;;;;;;11.27;10.07;;;10.90;99.90;;;;;;2617199;54;20398;-82
2022/04/15 09:31:13;;;;;;;14.60;10.87;;;10.90;99.90;;;;;;2616465;54;20497;-80
2022/04/15 09:34:22;;;;;;;14.87;10.60;;;10.90;99.90;;;;;;2616355;47;20419;-80
2022/04/15 09:36:47;;;;;;;15.17;13.00;;;10.80;99.90;;;;;;2616637;54;20426;-81
2022/04/15 09:39:17;;;;;;;15.40;12.40;;;10.90;99.90;;;;;;2616498;39;20909;-82
2022/04/15 09:41:55;;;;;;;10.20;9.07;;;10.80;99.90;;;;;;2616549;47;20169;-80
2022/04/15 09:44:22;;;;;;;8.37;7.57;;;10.90;99.90;;;;;;2617043;39;20871;-82
2022/04/15 09:46:51;;;;;;;8.90;8.00;;;11.00;99.90;;;;;;2616530;54;20558;-82
2022/04/15 09:49:18;;;;;;;8.80;8.00;;;11.10;99.90;;;;;;2616930;47;20403;-81
2022/04/15 09:51:52;;;;;;;11.83;10.60;;;11.10;99.90;;;;;;2615925;47;20456;-82
2022/04/15 09:54:25;;;;;;;11.97;10.40;;;11.20;99.90;;;;;;2616129;54;20518;-82
2022/04/15 09:56:55;;;;;;;14.10;12.50;;;11.10;99.90;;;;;;2616294;54;20482;-83
2022/04/15 09:59:23;;;;;;;19.23;16.30;;;11.10;99.90;;;;;;2615986;47;20419;-82
2022/04/15 10:01:54;;;;;;;16.20;13.47;;;11.00;99.90;;;;;;2616334;54;20480;-82
2022/04/15 10:04:23;;;;;;;17.80;15.93;;;11.10;99.90;;;;;;2615831;39;20809;-82
2022/04/15 10:06:50;;;;;;;22.93;20.60;;;11.30;99.90;;;;;;2615532;47;20457;-82
2022/04/15 10:09:17;;;;;;;14.67;12.40;;;11.30;99.90;;;;;;2617032;54;20405;-82
2022/04/15 10:11:47;;;;;;;12.80;10.77;;;11.40;99.90;;;;;;2616783;54;20550;-82
2022/04/15 10:14:15;;;;;;;10.60;9.53;;;11.40;99.90;;;;;;2618084;54;20927;-81
2022/04/15 10:16:42;;;;;;;24.67;22.27;;;11.40;99.90;;;;;;2617770;54;20398;-81
2022/04/15 10:19:11;;;;;;;9.40;8.50;;;11.40;99.90;;;;;;2617171;54;20496;-81
2022/04/15 10:21:43;;;;;;;9.40;8.40;;;11.30;99.90;;;;;;2618043;54;20420;-82
2022/04/15 10:24:32;;;;;;;12.67;11.40;;;11.50;99.90;;;;;;2617125;54;20412;-82
2022/04/15 10:27:00;;;;;;;13.03;11.63;;;11.40;99.90;;;;;;2617051;54;20395;-81
2022/04/15 10:29:27;;;;;;;12.83;9.53;;;11.40;99.90;;;;;;2616677;47;20527;-81
2022/04/15 10:31:53;;;;;;;13.17;10.20;;;11.50;99.90;;;;;;2617109;54;20403;-81
2022/04/15 10:34:21;;;;;;;10.60;9.50;;;11.50;99.90;;;;;;2616696;46;20442;-81
2022/04/15 10:36:51;;;;;;;9.53;8.53;;;11.40;99.90;;;;;;2616762;54;20399;-82
2022/04/15 10:39:18;;;;;;;10.50;8.53;;;11.30;99.90;;;;;;2618543;39;20895;-83
2022/04/15 10:41:48;;;;;;;10.30;9.20;;;11.60;99.90;;;;;;2617281;47;20403;-82
2022/04/15 10:44:24;;;;;;;9.00;8.10;;;11.70;99.90;;;;;;2617446;54;20411;-81
2022/04/15 10:46:50;;;;;;;9.47;8.53;;;11.70;99.90;;;;;;2617951;47;20460;-82
2022/04/15 10:49:18;;;;;;;9.20;7.30;;;11.70;99.90;;;;;;2617655;47;20408;-82
2022/04/15 10:51:44;;;;;;;11.60;9.20;;;11.80;99.90;;;;;;2617744;54;20201;-80
2022/04/15 10:54:30;;;;;;;18.10;16.50;;;11.90;99.90;;;;;;2617852;47;20416;-82
2022/04/15 10:57:04;;;;;;;88.70;82.33;;;12.10;99.90;;;;;;2616318;54;20171;-81
2022/04/15 11:02:20;;;;;;;8.97;8.03;;;12.20;99.90;;;;;;2616970;39;20829;-83
2022/04/15 11:04:52;;;;;;;9.83;7.90;;;12.10;99.90;;;;;;2618311;39;20812;-82
2022/04/15 11:07:50;;;;;;;9.00;7.60;;;12.10;99.90;;;;;;2617808;47;20406;-82
2022/04/15 11:10:18;;;;;;;8.07;7.03;;;12.00;99.90;;;;;;2617953;47;21058;-82
2022/04/15 11:12:44;;;;;;;7.73;6.60;;;12.00;99.90;;;;;;2618256;47;20387;-82
2022/04/15 11:16:13;;;;;;;7.83;7.07;;;12.00;99.90;;;;;;2618029;54;20927;-82
2022/04/15 11:19:00;;;;;;;8.60;7.27;;;12.10;99.90;;;;;;2617332;47;20411;-81
2022/04/15 11:21:33;;;;;;;10.20;7.83;;;12.40;99.90;;;;;;2617521;54;20396;-81
2022/04/15 11:24:04;;;;;;;9.70;8.77;;;12.40;99.90;;;;;;2617230;39;20921;-82
2022/04/15 11:26:31;;;;;;;9.70;8.30;;;12.30;99.90;;;;;;2617229;47;20427;-81
2022/04/15 11:28:59;;;;;;;9.30;8.10;;;12.30;99.90;;;;;;2617452;47;21093;-81
2022/04/15 11:31:34;;;;;;;8.37;7.53;;;12.30;99.90;;;;;;2617220;54;20980;-81
2022/04/15 11:34:08;;;;;;;10.77;8.13;;;12.40;99.90;;;;;;2617027;47;20438;-81
2022/04/15 11:36:40;;;;;;;8.10;7.03;;;12.60;99.90;;;;;;2616742;47;20367;-81
2022/04/15 11:39:07;;;;;;;7.87;7.17;;;12.60;99.90;;;;;;2617722;47;20394;-82
2022/04/15 11:41:34;;;;;;;8.50;7.00;;;12.30;99.90;;;;;;2622718;39;20774;-81
2022/04/15 11:44:05;;;;;;;7.70;7.03;;;12.40;99.90;;;;;;2617835;47;20423;-81
2022/04/15 11:46:38;;;;;;;8.90;7.43;;;12.60;99.90;;;;;;2616584;47;20431;-82
2022/04/15 11:49:11;;;;;;;9.23;8.37;;;12.90;99.90;;;;;;2617027;54;21418;-81
2022/04/15 11:51:37;;;;;;;7.90;7.30;;;13.20;99.90;;;;;;2617121;47;20575;-82
2022/04/15 11:54:02;;;;;;;7.77;7.17;;;13.30;99.90;;;;;;2616910;54;20550;-81
2022/04/15 11:56:29;;;;;;;7.67;7.07;;;13.10;99.90;;;;;;2617653;51;20181;-81
2022/04/15 11:58:58;;;;;;;6.60;6.00;;;12.90;99.90;;;;;;2617897;54;20173;-82
2022/04/15 12:01:32;;;;;;;9.40;6.80;;;13.00;99.90;;;;;;2617849;47;20466;-81
2022/04/15 12:04:00;;;;;;;8.00;7.30;;;13.00;99.90;;;;;;2617863;47;20423;-81
2022/04/15 12:06:29;;;;;;;10.40;9.40;;;13.00;99.90;;;;;;2618592;39;20820;-81
2022/04/15 12:08:56;;;;;;;7.20;6.60;;;13.00;99.90;;;;;;2617505;39;20789;-82
2022/04/15 12:11:24;;;;;;;8.73;8.03;;;13.10;99.90;;;;;;2618082;39;20869;-82
2022/04/15 12:14:01;;;;;;;7.67;6.90;;;13.20;99.90;;;;;;2617759;54;20423;-82
2022/04/15 12:16:33;;;;;;;7.70;7.00;;;13.30;99.90;;;;;;2617826;47;20824;-82
2022/04/15 12:18:59;;;;;;;7.10;6.40;;;13.20;99.90;;;;;;2618540;54;20399;-80
2022/04/15 12:21:28;;;;;;;7.43;6.73;;;13.40;99.90;;;;;;2617902;54;20442;-82
2022/04/15 12:24:01;;;;;;;7.50;6.53;;;13.50;99.90;;;;;;2617952;54;20386;-81
2022/04/15 12:26:27;;;;;;;11.10;6.47;;;13.40;99.90;;;;;;2618117;54;20944;-82
2022/04/15 12:31:46;;;;;;;6.47;5.97;;;13.40;99.90;;;;;;2619050;54;21081;-82
2022/04/15 12:34:15;;;;;;;8.23;7.53;;;13.60;99.90;;;;;;2618386;47;20497;-81
2022/04/15 12:36:45;;;;;;;8.47;7.67;;;13.40;99.90;;;;;;2618711;54;20404;-82
2022/04/15 12:39:16;;;;;;;7.73;7.03;;;13.20;99.90;;;;;;2618184;47;20415;-82
2022/04/15 12:41:48;;;;;;;8.07;7.27;;;13.10;99.90;;;;;;2618674;46;20430;-82
2022/04/15 12:44:29;;;;;;;9.37;8.47;;;13.00;99.90;;;;;;2618459;47;20400;-82
2022/04/15 12:47:00;;;;;;;8.23;7.53;;;13.30;99.90;;;;;;2618495;47;20462;-82
2022/04/15 12:49:34;;;;;;;8.60;7.70;;;13.50;99.90;;;;;;2619188;47;21097;-81